Time;durP1;ratioP1;P1;durP2;ratioP2;P2;SDS_P1;SDS_P2;PMS_P1;PMS_P2;Temp;Humidity;BMP_temperature;BMP_pressure;BME280_temperature;BME280_humidity;BME280_pressure;Samples;Min_cycle;Max_cycle;Signal;HPM_P1;HPM_P2
2021/06/19 00:01:40;;;;;;;2.35;1.92;;;;;;;;;;5070415;28;20217;-70
2021/06/19 00:04:07;;;;;;;2.30;1.73;;;;;;;;;;5070023;28;20134;-70
2021/06/19 00:06:33;;;;;;;2.55;1.90;;;;;;;;;;5071002;28;20052;-70
2021/06/19 00:08:59;;;;;;;4.28;2.33;;;;;;;;;;5070018;28;20048;-70
2021/06/19 00:11:25;;;;;;;2.15;1.98;;;;;;;;;;5071083;28;20522;-70
2021/06/19 00:13:51;;;;;;;2.58;2.38;;;;;;;;;;5069552;28;20061;-70
2021/06/19 00:16:18;;;;;;;2.67;2.38;;;;;;;;;;5070671;28;20135;-70
2021/06/19 00:18:44;;;;;;;5.25;2.15;;;;;;;;;;5070699;28;20072;-70
2021/06/19 00:21:12;;;;;;;4.13;2.75;;;;;;;;;;5070125;28;20047;-70
2021/06/19 00:23:38;;;;;;;3.17;2.72;;;;;;;;;;5069980;28;20139;-70
2021/06/19 00:26:04;;;;;;;2.38;2.17;;;;;;;;;;5069798;28;20052;-70
2021/06/19 00:28:30;;;;;;;2.47;2.20;;;;;;;;;;5070354;28;20094;-70
2021/06/19 00:30:56;;;;;;;2.75;2.55;;;;;;;;;;5068225;28;20048;-70
2021/06/19 00:33:22;;;;;;;2.70;2.50;;;;;;;;;;5069710;28;20044;-70
2021/06/19 00:35:48;;;;;;;2.63;2.38;;;;;;;;;;5069652;28;20055;-70
2021/06/19 00:38:14;;;;;;;3.63;2.15;;;;;;;;;;5069837;28;20061;-70
2021/06/19 00:40:40;;;;;;;2.25;2.15;;;;;;;;;;5069867;28;20131;-70
2021/06/19 00:43:06;;;;;;;2.83;1.92;;;;;;;;;;5069427;28;21123;-70
2021/06/19 00:45:34;;;;;;;2.60;2.40;;;;;;;;;;5069980;28;20044;-70
2021/06/19 00:48:00;;;;;;;3.78;2.40;;;;;;;;;;5069532;28;20046;-70
2021/06/19 00:50:27;;;;;;;2.58;2.40;;;;;;;;;;5069896;28;20574;-70
2021/06/19 00:52:53;;;;;;;2.22;2.03;;;;;;;;;;5069112;28;20811;-70
2021/06/19 00:55:20;;;;;;;2.88;2.60;;;;;;;;;;5069782;28;20051;-70
2021/06/19 00:57:47;;;;;;;4.78;3.42;;;;;;;;;;5070263;28;20090;-70
2021/06/19 01:00:13;;;;;;;2.95;2.10;;;;;;;;;;5069625;28;20061;-70
2021/06/19 01:02:40;;;;;;;2.63;2.42;;;;;;;;;;5069400;28;20080;-70
2021/06/19 01:05:06;;;;;;;3.45;2.28;;;;;;;;;;5068679;28;20519;-70
2021/06/19 01:07:32;;;;;;;2.15;2.00;;;;;;;;;;5069915;28;20072;-70
2021/06/19 01:09:58;;;;;;;5.13;1.92;;;;;;;;;;5068853;28;20048;-70
2021/06/19 01:12:25;;;;;;;2.78;2.50;;;;;;;;;;5069936;28;20084;-70
2021/06/19 01:14:51;;;;;;;2.25;2.05;;;;;;;;;;5069290;28;20056;-70
2021/06/19 01:17:18;;;;;;;2.58;2.38;;;;;;;;;;5069845;28;20415;-70
2021/06/19 01:19:44;;;;;;;3.13;2.63;;;;;;;;;;5069624;28;20052;-70
2021/06/19 01:22:11;;;;;;;2.65;1.95;;;;;;;;;;5069041;28;20059;-70
2021/06/19 01:24:37;;;;;;;2.95;1.75;;;;;;;;;;5069195;28;20053;-70
2021/06/19 01:27:03;;;;;;;3.45;2.70;;;;;;;;;;5068792;28;20044;-70
2021/06/19 01:29:29;;;;;;;2.05;1.85;;;;;;;;;;5069471;28;20048;-70
2021/06/19 01:31:55;;;;;;;3.17;1.80;;;;;;;;;;5068847;28;20387;-70
2021/06/19 01:34:21;;;;;;;2.15;2.05;;;;;;;;;;5068828;28;20076;-70
2021/06/19 01:36:48;;;;;;;2.42;2.00;;;;;;;;;;5068962;28;20084;-70
2021/06/19 01:39:14;;;;;;;2.28;2.10;;;;;;;;;;5068866;28;21023;-70
2021/06/19 01:41:40;;;;;;;1.95;1.85;;;;;;;;;;5068872;28;20080;-70
2021/06/19 01:44:07;;;;;;;2.28;2.08;;;;;;;;;;5068032;28;20060;-70
2021/06/19 01:46:34;;;;;;;1.90;1.80;;;;;;;;;;5068741;28;20049;-71
2021/06/19 01:49:01;;;;;;;5.13;2.78;;;;;;;;;;5068390;28;20131;-71
2021/06/19 01:51:27;;;;;;;2.20;2.00;;;;;;;;;;5069144;28;20044;-71
2021/06/19 01:53:54;;;;;;;2.53;2.33;;;;;;;;;;5067939;28;20510;-70
2021/06/19 01:56:21;;;;;;;3.00;2.40;;;;;;;;;;5069264;28;20052;-70
2021/06/19 01:58:47;;;;;;;2.78;2.58;;;;;;;;;;5069272;28;20060;-70
2021/06/19 02:01:15;;;;;;;2.95;2.63;;;;;;;;;;5068607;28;20060;-70
2021/06/19 02:03:42;;;;;;;2.60;2.08;;;;;;;;;;5068696;28;20044;-70
2021/06/19 02:06:08;;;;;;;2.80;2.60;;;;;;;;;;5068052;28;20434;-70
2021/06/19 02:08:34;;;;;;;4.68;2.55;;;;;;;;;;5068709;28;20065;-71
2021/06/19 02:11:01;;;;;;;2.00;1.80;;;;;;;;;;5068264;28;20048;-71
2021/06/19 02:13:27;;;;;;;6.85;3.05;;;;;;;;;;5068355;28;20049;-70
2021/06/19 02:15:56;;;;;;;3.97;2.10;;;;;;;;;;5068202;28;20047;-70
2021/06/19 02:18:22;;;;;;;2.83;2.63;;;;;;;;;;5068970;28;20131;-70
2021/06/19 02:20:52;;;;;;;3.67;2.45;;;;;;;;;;5068655;28;20050;-70
2021/06/19 02:23:20;;;;;;;2.33;2.13;;;;;;;;;;5068685;28;20410;-70
2021/06/19 02:25:48;;;;;;;2.40;2.20;;;;;;;;;;5068669;28;20068;-70
2021/06/19 02:28:14;;;;;;;2.10;1.90;;;;;;;;;;5068591;28;20423;-70
2021/06/19 02:30:43;;;;;;;2.88;2.33;;;;;;;;;;5068459;28;20166;-70
2021/06/19 02:33:09;;;;;;;2.50;2.30;;;;;;;;;;5067822;28;20590;-70
2021/06/19 02:35:38;;;;;;;4.95;2.33;;;;;;;;;;5068132;28;20060;-70
2021/06/19 02:38:04;;;;;;;3.75;2.95;;;;;;;;;;5068072;28;20084;-70
2021/06/19 02:40:31;;;;;;;3.03;2.78;;;;;;;;;;5068630;28;20052;-70
2021/06/19 02:42:57;;;;;;;2.85;2.65;;;;;;;;;;5067868;28;20048;-70
2021/06/19 02:45:23;;;;;;;2.92;2.65;;;;;;;;;;5068712;28;20052;-70
2021/06/19 02:47:51;;;;;;;3.35;2.30;;;;;;;;;;5068307;28;20056;-70
2021/06/19 02:50:18;;;;;;;3.13;2.08;;;;;;;;;;5068623;28;20033;-70
2021/06/19 02:52:44;;;;;;;4.68;2.60;;;;;;;;;;5066718;28;20075;-70
2021/06/19 02:55:11;;;;;;;2.80;2.58;;;;;;;;;;5069458;28;20125;-70
2021/06/19 02:57:38;;;;;;;1.50;1.40;;;;;;;;;;5072419;28;20102;-70
2021/06/19 03:00:05;;;;;;;2.83;2.15;;;;;;;;;;5071720;28;20237;-71
2021/06/19 03:02:32;;;;;;;2.15;2.00;;;;;;;;;;5071697;28;20507;-71
2021/06/19 03:04:58;;;;;;;3.08;1.90;;;;;;;;;;5070869;28;20201;-71
2021/06/19 03:07:24;;;;;;;2.60;2.40;;;;;;;;;;5072439;28;20051;-71
2021/06/19 03:09:50;;;;;;;3.20;2.30;;;;;;;;;;5071165;28;20411;-71
2021/06/19 03:12:16;;;;;;;1.90;1.80;;;;;;;;;;5071708;28;20184;-71
2021/06/19 03:14:42;;;;;;;2.28;2.08;;;;;;;;;;5071214;28;20048;-71
2021/06/19 03:17:08;;;;;;;2.58;2.15;;;;;;;;;;5071049;28;20060;-71
2021/06/19 03:19:34;;;;;;;2.28;2.17;;;;;;;;;;5071858;28;20055;-71
2021/06/19 03:22:01;;;;;;;2.40;2.20;;;;;;;;;;5071024;28;20059;-71
2021/06/19 03:24:27;;;;;;;3.33;2.13;;;;;;;;;;5071405;28;20065;-71
2021/06/19 03:26:54;;;;;;;2.85;2.15;;;;;;;;;;5070894;28;20224;-70
2021/06/19 03:29:20;;;;;;;3.15;2.10;;;;;;;;;;5071589;28;20094;-70
2021/06/19 03:31:47;;;;;;;2.30;2.10;;;;;;;;;;5071042;28;20522;-70
2021/06/19 03:34:13;;;;;;;4.05;2.63;;;;;;;;;;5070585;28;20044;-70
2021/06/19 03:36:39;;;;;;;2.22;2.10;;;;;;;;;;5071152;28;20102;-71
2021/06/19 03:39:05;;;;;;;1.90;1.80;;;;;;;;;;5070547;28;20045;-71
2021/06/19 03:41:31;;;;;;;3.03;2.10;;;;;;;;;;5071466;28;20243;-70
2021/06/19 03:43:57;;;;;;;1.80;1.70;;;;;;;;;;5070514;28;20054;-71
2021/06/19 03:46:23;;;;;;;2.25;1.67;;;;;;;;;;5071113;28;20511;-71
2021/06/19 03:48:49;;;;;;;2.28;1.83;;;;;;;;;;5071164;28;20048;-71
2021/06/19 03:51:15;;;;;;;2.10;1.90;;;;;;;;;;5070998;28;21474;-71
2021/06/19 03:53:41;;;;;;;1.85;1.75;;;;;;;;;;5070895;28;20064;-71
2021/06/19 03:56:07;;;;;;;2.75;2.08;;;;;;;;;;5070192;28;20048;-70
2021/06/19 03:58:33;;;;;;;2.72;1.80;;;;;;;;;;5070993;28;20422;-71
2021/06/19 04:01:00;;;;;;;2.50;2.25;;;;;;;;;;5070013;28;20072;-71
2021/06/19 04:03:26;;;;;;;1.50;1.38;;;;;;;;;;5070810;28;20292;-71
2021/06/19 04:05:52;;;;;;;2.55;2.35;;;;;;;;;;5070208;28;20143;-71
2021/06/19 04:08:18;;;;;;;2.70;2.40;;;;;;;;;;5070962;28;20048;-71
2021/06/19 04:10:44;;;;;;;2.45;2.25;;;;;;;;;;5071116;28;20048;-71
2021/06/19 04:13:10;;;;;;;2.60;2.10;;;;;;;;;;5070206;28;20051;-71
2021/06/19 04:15:36;;;;;;;1.65;1.55;;;;;;;;;;5070704;28;20048;-71
2021/06/19 04:18:02;;;;;;;2.05;1.90;;;;;;;;;;5069805;28;20143;-71
2021/06/19 04:20:29;;;;;;;2.15;1.95;;;;;;;;;;5070932;28;20106;-71
2021/06/19 04:22:55;;;;;;;2.60;1.95;;;;;;;;;;5069622;28;20052;-70
2021/06/19 04:25:21;;;;;;;1.70;1.60;;;;;;;;;;5070110;28;20040;-70
2021/06/19 04:27:48;;;;;;;2.03;1.52;;;;;;;;;;5070464;28;20056;-70
2021/06/19 04:30:15;;;;;;;2.22;2.05;;;;;;;;;;5070214;28;20040;-70
2021/06/19 04:32:42;;;;;;;2.20;2.03;;;;;;;;;;5067862;28;20052;-70
2021/06/19 04:35:08;;;;;;;3.42;2.03;;;;;;;;;;5069194;28;20055;-71
2021/06/19 04:37:34;;;;;;;1.90;1.80;;;;;;;;;;5070294;28;20083;-71
2021/06/19 04:42:56;;;;;;;2.35;2.17;;;;;;;;;;5054908;28;20411;-71
2021/06/19 04:45:22;;;;;;;2.88;1.95;;;;;;;;;;5069897;28;20056;-70
2021/06/19 04:47:48;;;;;;;3.30;2.70;;;;;;;;;;5069597;28;20071;-71
2021/06/19 04:50:15;;;;;;;2.47;2.30;;;;;;;;;;5069644;28;20056;-71
2021/06/19 04:52:43;;;;;;;1.60;1.48;;;;;;;;;;5069883;28;20044;-71
2021/06/19 04:55:10;;;;;;;2.20;2.10;;;;;;;;;;5068586;28;20059;-71
2021/06/19 04:57:36;;;;;;;2.40;2.20;;;;;;;;;;5069901;28;20193;-71
2021/06/19 05:00:03;;;;;;;5.00;2.85;;;;;;;;;;5069407;28;20566;-71
2021/06/19 05:02:29;;;;;;;2.10;1.92;;;;;;;;;;5069434;28;20059;-71
2021/06/19 05:04:55;;;;;;;2.17;1.58;;;;;;;;;;5068784;28;20048;-71
2021/06/19 05:07:22;;;;;;;1.70;1.60;;;;;;;;;;5069743;28;20128;-71
2021/06/19 05:09:48;;;;;;;1.55;1.40;;;;;;;;;;5069342;28;20380;-71
2021/06/19 05:12:14;;;;;;;3.60;2.33;;;;;;;;;;5068972;28;20125;-71
2021/06/19 05:14:40;;;;;;;4.15;2.85;;;;;;;;;;5069215;28;20507;-70
2021/06/19 05:17:06;;;;;;;3.30;1.65;;;;;;;;;;5068523;28;20143;-70
2021/06/19 05:19:32;;;;;;;1.98;1.70;;;;;;;;;;5069975;28;20062;-70
2021/06/19 05:21:58;;;;;;;2.05;1.75;;;;;;;;;;5069192;28;20040;-70
2021/06/19 05:24:24;;;;;;;1.95;1.75;;;;;;;;;;5069054;28;20114;-71
2021/06/19 05:26:51;;;;;;;2.13;2.00;;;;;;;;;;5069229;28;20053;-72
2021/06/19 05:29:18;;;;;;;2.08;1.98;;;;;;;;;;5069618;28;20079;-71
2021/06/19 05:31:44;;;;;;;2.10;2.00;;;;;;;;;;5069404;28;20048;-71
2021/06/19 05:34:10;;;;;;;2.03;1.85;;;;;;;;;;5067950;28;20059;-71
2021/06/19 05:36:36;;;;;;;4.57;1.67;;;;;;;;;;5069278;28;20257;-71
2021/06/19 05:39:02;;;;;;;2.10;1.90;;;;;;;;;;5068690;28;20399;-71
2021/06/19 05:41:28;;;;;;;2.67;1.58;;;;;;;;;;5069170;28;20412;-70
2021/06/19 05:43:55;;;;;;;1.90;1.80;;;;;;;;;;5068117;28;20044;-70
2021/06/19 05:46:21;;;;;;;2.13;2.00;;;;;;;;;;5068942;28;20067;-70
2021/06/19 05:48:47;;;;;;;2.53;1.90;;;;;;;;;;5069103;28;20048;-70
2021/06/19 05:51:13;;;;;;;2.47;1.98;;;;;;;;;;5068776;28;20048;-71
2021/06/19 05:53:39;;;;;;;2.50;2.10;;;;;;;;;;5068733;28;20051;-71
2021/06/19 05:56:05;;;;;;;2.10;1.90;;;;;;;;;;5068378;28;20143;-71
2021/06/19 05:58:31;;;;;;;2.10;1.90;;;;;;;;;;5069251;28;20049;-71
2021/06/19 06:00:57;;;;;;;1.75;1.65;;;;;;;;;;5068070;28;20056;-71
2021/06/19 06:03:24;;;;;;;1.83;1.73;;;;;;;;;;5068705;28;20048;-71
2021/06/19 06:05:50;;;;;;;1.80;1.70;;;;;;;;;;5068370;28;20414;-71
2021/06/19 06:08:16;;;;;;;2.20;2.10;;;;;;;;;;5068698;28;20044;-70
2021/06/19 06:10:42;;;;;;;3.47;2.15;;;;;;;;;;5069279;28;20147;-71
2021/06/19 06:13:08;;;;;;;3.35;1.90;;;;;;;;;;5068141;28;21177;-71
2021/06/19 06:15:35;;;;;;;2.85;2.13;;;;;;;;;;5068637;28;20053;-70
2021/06/19 06:18:01;;;;;;;1.77;1.67;;;;;;;;;;5068699;28;20093;-70
2021/06/19 06:20:27;;;;;;;3.42;2.00;;;;;;;;;;5069125;28;20095;-70
2021/06/19 06:22:53;;;;;;;2.25;2.00;;;;;;;;;;5068226;28;20135;-70
2021/06/19 06:25:19;;;;;;;2.00;1.58;;;;;;;;;;5068606;28;20236;-71
2021/06/19 06:27:45;;;;;;;2.53;2.10;;;;;;;;;;5069497;28;20085;-71
2021/06/19 06:30:12;;;;;;;2.15;2.05;;;;;;;;;;5070305;28;20052;-71
2021/06/19 06:32:38;;;;;;;1.95;1.75;;;;;;;;;;5072267;28;20178;-71
2021/06/19 06:35:07;;;;;;;2.03;1.70;;;;;;;;;;5071303;28;20044;-71
2021/06/19 06:37:33;;;;;;;2.20;2.00;;;;;;;;;;5072650;28;20135;-71
2021/06/19 06:40:00;;;;;;;2.42;1.50;;;;;;;;;;5071894;28;20054;-71
2021/06/19 06:42:26;;;;;;;2.60;2.33;;;;;;;;;;5072089;28;20456;-71
2021/06/19 06:44:52;;;;;;;3.35;1.90;;;;;;;;;;5071709;28;20095;-71
2021/06/19 06:47:18;;;;;;;2.03;1.90;;;;;;;;;;5072211;28;20387;-71
2021/06/19 06:49:44;;;;;;;1.40;1.30;;;;;;;;;;5072674;28;20041;-71
2021/06/19 06:52:10;;;;;;;2.38;2.28;;;;;;;;;;5071550;28;20048;-70
2021/06/19 06:54:39;;;;;;;1.75;1.65;;;;;;;;;;5072301;28;20045;-70
2021/06/19 06:57:07;;;;;;;3.33;3.03;;;;;;;;;;5071414;28;20052;-71
2021/06/19 06:59:33;;;;;;;4.10;2.55;;;;;;;;;;5072367;28;20080;-71
2021/06/19 07:01:59;;;;;;;4.13;2.05;;;;;;;;;;5070808;28;20059;-71
2021/06/19 07:04:25;;;;;;;2.85;1.90;;;;;;;;;;5071629;28;20075;-71
2021/06/19 07:06:51;;;;;;;1.80;1.70;;;;;;;;;;5071424;28;20127;-71
2021/06/19 07:09:17;;;;;;;3.42;2.25;;;;;;;;;;5071724;28;20052;-70
2021/06/19 07:11:43;;;;;;;2.20;2.00;;;;;;;;;;5071879;28;20554;-71
2021/06/19 07:14:09;;;;;;;1.90;1.80;;;;;;;;;;5071263;28;20056;-71
2021/06/19 07:16:35;;;;;;;2.00;1.80;;;;;;;;;;5072330;28;20041;-71
2021/06/19 07:19:02;;;;;;;2.13;2.00;;;;;;;;;;5071569;28;20048;-71
2021/06/19 07:21:29;;;;;;;1.90;1.80;;;;;;;;;;5072286;28;20103;-71
2021/06/19 07:23:56;;;;;;;2.08;1.92;;;;;;;;;;5071193;28;20059;-70
2021/06/19 07:26:22;;;;;;;4.97;2.10;;;;;;;;;;5072071;28;20048;-70
2021/06/19 07:28:48;;;;;;;3.05;2.53;;;;;;;;;;5071514;28;20631;-71
2021/06/19 07:31:15;;;;;;;2.92;2.38;;;;;;;;;;5071330;28;20048;-71
2021/06/19 07:33:42;;;;;;;3.20;1.90;;;;;;;;;;5071427;28;20059;-71
2021/06/19 07:36:08;;;;;;;1.48;1.33;;;;;;;;;;5071200;28;20059;-71
2021/06/19 07:38:35;;;;;;;2.55;2.17;;;;;;;;;;5071654;28;20129;-71
2021/06/19 07:41:01;;;;;;;2.50;2.30;;;;;;;;;;5070536;28;20040;-71
2021/06/19 07:43:27;;;;;;;1.65;1.55;;;;;;;;;;5071244;28;20110;-71
2021/06/19 07:45:53;;;;;;;3.35;2.97;;;;;;;;;;5070976;28;20079;-71
2021/06/19 07:48:20;;;;;;;1.75;1.65;;;;;;;;;;5071427;28;20052;-71
2021/06/19 07:50:46;;;;;;;5.65;2.17;;;;;;;;;;5071718;28;20102;-71
2021/06/19 07:53:12;;;;;;;2.10;2.00;;;;;;;;;;5070712;28;20049;-71
2021/06/19 07:55:38;;;;;;;2.30;2.10;;;;;;;;;;5071464;28;20053;-71
2021/06/19 07:58:05;;;;;;;2.00;1.90;;;;;;;;;;5070975;28;20098;-71
2021/06/19 08:00:31;;;;;;;2.88;2.30;;;;;;;;;;5070581;28;20052;-71
2021/06/19 08:02:58;;;;;;;2.22;2.03;;;;;;;;;;5069998;28;20468;-71
2021/06/19 08:05:25;;;;;;;3.22;2.00;;;;;;;;;;5070847;28;20037;-71
2021/06/19 08:07:51;;;;;;;2.40;1.92;;;;;;;;;;5070685;28;20608;-71
2021/06/19 08:10:18;;;;;;;1.70;1.60;;;;;;;;;;5070422;28;20496;-71
2021/06/19 08:12:44;;;;;;;2.15;2.05;;;;;;;;;;5070643;28;20114;-71
2021/06/19 08:15:10;;;;;;;2.85;1.80;;;;;;;;;;5069814;28;20561;-71
2021/06/19 08:17:36;;;;;;;2.58;1.70;;;;;;;;;;5052729;28;20455;-71
2021/06/19 08:20:03;;;;;;;1.83;1.73;;;;;;;;;;5069966;28;20463;-71
2021/06/19 08:22:30;;;;;;;2.03;1.92;;;;;;;;;;5070287;28;20049;-71
2021/06/19 08:24:56;;;;;;;1.85;1.75;;;;;;;;;;5069600;28;20079;-71
2021/06/19 08:27:23;;;;;;;2.15;2.03;;;;;;;;;;5070565;28;20043;-71
2021/06/19 08:29:49;;;;;;;2.45;1.63;;;;;;;;;;5069947;28;20467;-70
2021/06/19 08:32:16;;;;;;;2.00;1.80;;;;;;;;;;5069405;28;20052;-71
2021/06/19 08:34:42;;;;;;;3.15;2.58;;;;;;;;;;5069905;28;20127;-71
2021/06/19 08:37:09;;;;;;;3.00;2.10;;;;;;;;;;5069331;28;20052;-71
2021/06/19 08:39:35;;;;;;;2.08;1.98;;;;;;;;;;5070128;28;20471;-71
2021/06/19 08:42:01;;;;;;;1.80;1.70;;;;;;;;;;5069689;28;20055;-70
2021/06/19 08:44:29;;;;;;;2.20;1.50;;;;;;;;;;5070262;28;20510;-70
2021/06/19 08:46:55;;;;;;;2.15;1.95;;;;;;;;;;5069766;28;20102;-70
2021/06/19 08:49:22;;;;;;;3.47;2.30;;;;;;;;;;5070189;28;20045;-70
2021/06/19 08:51:52;;;;;;;1.40;1.30;;;;;;;;;;5069728;28;20060;-70
2021/06/19 08:54:18;;;;;;;1.83;1.70;;;;;;;;;;5069747;28;20052;-70
2021/06/19 08:56:44;;;;;;;1.90;1.75;;;;;;;;;;5070686;28;20051;-70
2021/06/19 08:59:10;;;;;;;1.70;1.60;;;;;;;;;;5069987;28;20090;-70
2021/06/19 09:01:38;;;;;;;1.75;1.65;;;;;;;;;;5070184;28;20083;-70
2021/06/19 09:04:05;;;;;;;2.55;1.88;;;;;;;;;;5069447;28;20036;-71
2021/06/19 09:06:32;;;;;;;2.10;1.88;;;;;;;;;;5070175;28;20056;-71
2021/06/19 09:09:05;;;;;;;1.90;1.60;;;;;;;;;;5069518;28;20059;-71
2021/06/19 09:11:31;;;;;;;;;;;;;;;;;;5070751;28;20045;-71
2021/06/19 09:14:01;;;;;;;2.13;1.92;;;;;;;;;;5069166;28;19970;-71
2021/06/19 09:16:28;;;;;;;3.30;1.65;;;;;;;;;;5069841;28;20040;-70
2021/06/19 09:18:54;;;;;;;6.82;2.67;;;;;;;;;;5069274;28;20543;-70
2021/06/19 09:21:27;;;;;;;2.85;2.58;;;;;;;;;;5069656;28;20075;-70
2021/06/19 09:23:53;;;;;;;2.30;2.10;;;;;;;;;;5068690;28;20628;-70
2021/06/19 09:26:33;;;;;;;2.75;2.55;;;;;;;;;;5069576;28;20112;-71
2021/06/19 09:29:01;;;;;;;2.22;2.03;;;;;;;;;;5069051;28;20044;-70
2021/06/19 09:31:31;;;;;;;1.73;1.63;;;;;;;;;;5069632;28;20060;-70
2021/06/19 09:34:03;;;;;;;1.98;1.88;;;;;;;;;;5068757;28;20044;-70
2021/06/19 09:36:37;;;;;;;3.15;2.30;;;;;;;;;;5069760;28;20102;-71
2021/06/19 09:39:04;;;;;;;2.92;2.70;;;;;;;;;;5069076;28;20491;-71
2021/06/19 09:41:34;;;;;;;1.80;1.70;;;;;;;;;;5069565;28;20080;-70
2021/06/19 09:44:00;;;;;;;4.25;2.75;;;;;;;;;;5068394;28;20106;-70
2021/06/19 09:46:26;;;;;;;2.88;2.67;;;;;;;;;;5069571;28;20102;-70
2021/06/19 09:48:53;;;;;;;2.25;2.05;;;;;;;;;;5069424;28;20480;-70
2021/06/19 09:51:24;;;;;;;2.22;2.03;;;;;;;;;;5069760;28;20045;-70
2021/06/19 09:53:52;;;;;;;3.83;1.70;;;;;;;;;;5068905;28;20044;-70
2021/06/19 09:56:22;;;;;;;2.22;2.13;;;;;;;;;;5069565;28;20060;-70
2021/06/19 09:58:57;;;;;;;5.22;2.58;;;;;;;;;;5069288;28;20048;-70
2021/06/19 10:01:38;;;;;;;2.97;1.90;;;;;;;;;;5069508;28;20037;-70
2021/06/19 10:04:04;;;;;;;2.20;2.10;;;;;;;;;;5070173;28;20075;-70
2021/06/19 10:06:31;;;;;;;4.90;2.38;;;;;;;;;;5073525;28;20507;-70
2021/06/19 10:08:57;;;;;;;3.15;2.15;;;;;;;;;;5072643;28;20399;-70
2021/06/19 10:11:26;;;;;;;2.00;1.80;;;;;;;;;;5071490;28;20049;-70
2021/06/19 10:13:53;;;;;;;2.92;2.40;;;;;;;;;;5072277;28;20078;-70
2021/06/19 10:16:19;;;;;;;3.40;2.47;;;;;;;;;;5073069;28;20063;-70
2021/06/19 10:18:46;;;;;;;2.67;2.40;;;;;;;;;;5073255;28;20045;-70
2021/06/19 10:21:13;;;;;;;2.58;2.33;;;;;;;;;;5072749;28;20083;-70
2021/06/19 10:23:40;;;;;;;2.63;2.42;;;;;;;;;;5072934;28;20040;-70
2021/06/19 10:26:06;;;;;;;2.35;2.22;;;;;;;;;;5054386;28;20452;-70
2021/06/19 10:28:33;;;;;;;2.03;1.92;;;;;;;;;;5073157;28;20140;-70
2021/06/19 10:30:59;;;;;;;2.28;2.08;;;;;;;;;;5072245;28;20052;-70
2021/06/19 10:33:29;;;;;;;1.92;1.83;;;;;;;;;;5072804;28;20055;-70
2021/06/19 10:35:57;;;;;;;2.00;1.90;;;;;;;;;;5072041;28;20131;-70
2021/06/19 10:38:24;;;;;;;3.25;2.42;;;;;;;;;;5073041;28;20052;-70
2021/06/19 10:40:55;;;;;;;2.58;2.38;;;;;;;;;;5072871;28;20128;-70
2021/06/19 10:43:22;;;;;;;2.72;2.28;;;;;;;;;;5072489;28;20499;-70
2021/06/19 10:45:48;;;;;;;3.78;2.13;;;;;;;;;;5072403;28;20074;-70
2021/06/19 10:48:16;;;;;;;3.75;2.15;;;;;;;;;;5072873;28;20537;-70
2021/06/19 10:50:43;;;;;;;2.97;2.78;;;;;;;;;;5072765;28;20053;-70
2021/06/19 10:53:11;;;;;;;2.20;1.60;;;;;;;;;;5072012;28;20052;-70
2021/06/19 10:55:53;;;;;;;3.22;1.77;;;;;;;;;;5072333;28;20045;-70
2021/06/19 10:58:21;;;;;;;3.30;1.80;;;;;;;;;;5072720;28;20550;-70
2021/06/19 11:00:55;;;;;;;2.03;1.70;;;;;;;;;;5071932;28;20102;-71
2021/06/19 11:03:41;;;;;;;2.15;1.73;;;;;;;;;;5071915;28;20087;-70
2021/06/19 11:06:26;;;;;;;1.80;1.70;;;;;;;;;;5071248;28;20113;-70
2021/06/19 11:09:16;;;;;;;1.85;1.33;;;;;;;;;;5071523;28;20127;-70
2021/06/19 11:11:49;;;;;;;1.92;1.73;;;;;;;;;;5058161;28;20063;-70
2021/06/19 11:14:15;;;;;;;;;;;;;;;;;;5071871;28;20060;-70
2021/06/19 11:16:44;;;;;;;2.55;1.48;;;;;;;;;;5071540;28;19923;-70
2021/06/19 11:19:10;;;;;;;3.28;1.25;;;;;;;;;;5071445;28;20048;-70
2021/06/19 11:21:38;;;;;;;3.70;1.58;;;;;;;;;;5071969;28;20506;-70
2021/06/19 11:24:10;;;;;;;2.58;1.65;;;;;;;;;;5068926;28;20515;-70
2021/06/19 11:26:59;;;;;;;3.08;1.40;;;;;;;;;;5072251;28;20194;-70
2021/06/19 11:29:40;;;;;;;1.40;1.30;;;;;;;;;;5072227;28;20055;-70
2021/06/19 11:32:26;;;;;;;1.13;0.88;;;;;;;;;;5071076;28;20044;-70
2021/06/19 11:34:57;;;;;;;1.35;1.13;;;;;;;;;;5071005;28;20052;-70
2021/06/19 11:37:23;;;;;;;2.22;2.10;;;;;;;;;;5071917;28;20076;-70
2021/06/19 11:39:49;;;;;;;2.55;1.40;;;;;;;;;;5071624;28;20131;-70
2021/06/19 11:42:15;;;;;;;1.13;1.00;;;;;;;;;;5071478;28;20656;-70
2021/06/19 11:44:43;;;;;;;1.60;1.33;;;;;;;;;;5071364;28;20429;-70
2021/06/19 11:47:10;;;;;;;2.33;1.13;;;;;;;;;;5070779;28;20735;-70
2021/06/19 11:49:38;;;;;;;1.00;1.00;;;;;;;;;;5071930;28;20056;-70
2021/06/19 11:52:05;;;;;;;2.42;1.65;;;;;;;;;;5070817;28;20510;-70
2021/06/19 11:54:31;;;;;;;2.20;1.55;;;;;;;;;;5053250;28;20049;-70
2021/06/19 11:56:58;;;;;;;1.88;0.93;;;;;;;;;;5070589;28;20110;-70
2021/06/19 11:59:26;;;;;;;1.23;1.02;;;;;;;;;;5071514;28;20442;-70
2021/06/19 12:01:52;;;;;;;2.78;0.95;;;;;;;;;;5070532;28;20045;-70
2021/06/19 12:04:19;;;;;;;2.10;1.05;;;;;;;;;;5070853;28;20045;-70
2021/06/19 12:06:49;;;;;;;2.08;1.30;;;;;;;;;;5071233;28;20110;-70
2021/06/19 12:09:18;;;;;;;2.83;2.08;;;;;;;;;;5071371;28;20491;-70
2021/06/19 12:11:45;;;;;;;1.35;1.00;;;;;;;;;;5071070;28;20523;-70
2021/06/19 12:14:15;;;;;;;3.38;1.83;;;;;;;;;;5070109;28;20051;-70
2021/06/19 12:16:42;;;;;;;1.27;1.05;;;;;;;;;;5069327;28;20051;-70
2021/06/19 12:19:08;;;;;;;2.78;0.88;;;;;;;;;;5070466;28;20053;-70
2021/06/19 12:21:35;;;;;;;1.30;1.20;;;;;;;;;;5071263;28;20577;-70
2021/06/19 12:24:06;;;;;;;1.52;0.70;;;;;;;;;;5069901;28;20048;-70
2021/06/19 12:26:32;;;;;;;1.02;0.95;;;;;;;;;;5070798;28;20115;-70
2021/06/19 12:28:58;;;;;;;4.30;1.80;;;;;;;;;;5070361;28;20059;-70
2021/06/19 12:31:26;;;;;;;8.68;2.22;;;;;;;;;;5070379;28;20045;-71
2021/06/19 12:33:57;;;;;;;1.00;0.90;;;;;;;;;;5069743;28;20118;-70
2021/06/19 12:36:23;;;;;;;1.20;1.00;;;;;;;;;;5070852;28;20049;-70
2021/06/19 12:38:50;;;;;;;2.05;1.10;;;;;;;;;;5070392;28;20044;-70
2021/06/19 12:41:16;;;;;;;0.63;0.63;;;;;;;;;;5070648;28;20063;-70
2021/06/19 12:43:48;;;;;;;1.83;1.00;;;;;;;;;;5070055;28;20048;-70
2021/06/19 12:46:15;;;;;;;2.05;1.15;;;;;;;;;;5068548;28;20052;-70
2021/06/19 12:48:42;;;;;;;1.45;1.27;;;;;;;;;;5070736;28;20499;-70
2021/06/19 12:51:08;;;;;;;0.80;0.65;;;;;;;;;;5070216;28;20111;-70
2021/06/19 12:53:35;;;;;;;1.88;0.82;;;;;;;;;;5069632;28;20526;-70
2021/06/19 12:56:06;;;;;;;1.15;0.82;;;;;;;;;;5069544;28;20048;-70
2021/06/19 12:58:37;;;;;;;1.73;1.10;;;;;;;;;;5070586;28;20199;-70
2021/06/19 13:01:04;;;;;;;2.20;1.10;;;;;;;;;;5069548;28;20127;-70
2021/06/19 13:03:48;;;;;;;1.02;0.93;;;;;;;;;;5069801;28;20139;-70
2021/06/19 13:06:26;;;;;;;0.77;0.77;;;;;;;;;;5070084;28;20531;-70
2021/06/19 13:08:56;;;;;;;1.25;1.15;;;;;;;;;;5069766;28;20048;-70
2021/06/19 13:11:26;;;;;;;3.35;1.42;;;;;;;;;;5070081;28;20052;-70
2021/06/19 13:13:52;;;;;;;1.30;1.20;;;;;;;;;;5069644;28;20084;-70
2021/06/19 13:16:28;;;;;;;2.35;0.90;;;;;;;;;;5052234;28;20399;-70
2021/06/19 13:18:58;;;;;;;1.50;0.80;;;;;;;;;;5069900;28;20044;-70
2021/06/19 13:21:25;;;;;;;1.52;1.33;;;;;;;;;;5070074;28;20070;-70
2021/06/19 13:23:51;;;;;;;1.02;0.90;;;;;;;;;;5069162;28;20044;-70
2021/06/19 13:26:25;;;;;;;1.73;0.85;;;;;;;;;;5069764;28;20051;-70
2021/06/19 13:28:51;;;;;;;;;;;;;;;;;;5070399;28;20056;-70
2021/06/19 13:31:20;;;;;;;0.88;0.88;;;;;;;;;;5069520;28;20011;-70
2021/06/19 13:33:51;;;;;;;2.50;0.98;;;;;;;;;;5069829;28;20131;-70
2021/06/19 13:36:18;;;;;;;1.48;1.00;;;;;;;;;;5069331;28;20048;-70
2021/06/19 13:39:04;;;;;;;2.22;1.17;;;;;;;;;;5069409;28;20052;-70
2021/06/19 13:41:36;;;;;;;1.10;0.93;;;;;;;;;;5069840;28;20048;-70
2021/06/19 13:44:02;;;;;;;2.35;1.13;;;;;;;;;;5068540;28;20054;-70
2021/06/19 13:46:29;;;;;;;2.55;1.25;;;;;;;;;;5069991;28;20419;-70
2021/06/19 13:48:56;;;;;;;2.78;0.98;;;;;;;;;;5069054;28;20040;-70
2021/06/19 13:51:22;;;;;;;2.15;0.93;;;;;;;;;;5069857;28;20586;-70
2021/06/19 13:53:50;;;;;;;5.35;1.27;;;;;;;;;;5068866;28;20037;-70
2021/06/19 13:56:16;;;;;;;2.53;0.80;;;;;;;;;;5069061;28;20637;-70
2021/06/19 13:58:43;;;;;;;3.30;1.45;;;;;;;;;;5069404;28;20411;-70
2021/06/19 14:01:11;;;;;;;1.23;1.00;;;;;;;;;;5068781;28;20044;-70
2021/06/19 14:03:37;;;;;;;1.95;1.50;;;;;;;;;;5068764;28;20097;-70
2021/06/19 14:06:06;;;;;;;1.60;1.02;;;;;;;;;;5068498;28;20450;-70
2021/06/19 14:08:32;;;;;;;1.20;1.10;;;;;;;;;;5069661;28;20495;-70
2021/06/19 14:10:58;;;;;;;0.75;0.75;;;;;;;;;;5068768;28;20047;-70
2021/06/19 14:13:24;;;;;;;1.08;0.98;;;;;;;;;;5069191;28;20048;-70
2021/06/19 14:15:50;;;;;;;1.55;1.23;;;;;;;;;;5069096;28;20055;-70
2021/06/19 14:18:16;;;;;;;1.23;1.02;;;;;;;;;;5069345;28;20558;-71
2021/06/19 14:20:43;;;;;;;1.25;0.95;;;;;;;;;;5069658;28;20110;-70
2021/06/19 14:23:09;;;;;;;1.70;1.27;;;;;;;;;;5068407;28;20418;-70
2021/06/19 14:25:35;;;;;;;1.75;1.02;;;;;;;;;;5069437;28;20060;-70
2021/06/19 14:28:03;;;;;;;0.95;0.88;;;;;;;;;;5068810;28;20060;-70
2021/06/19 14:30:29;;;;;;;2.10;0.90;;;;;;;;;;5069197;28;20102;-70
2021/06/19 14:32:55;;;;;;;1.30;1.00;;;;;;;;;;5068167;28;20049;-70
2021/06/19 14:35:22;;;;;;;2.08;0.73;;;;;;;;;;5068929;28;20052;-70
2021/06/19 14:37:49;;;;;;;1.85;0.85;;;;;;;;;;5069007;28;20114;-70
2021/06/19 14:40:15;;;;;;;0.93;0.88;;;;;;;;;;5069188;28;20052;-70
2021/06/19 14:42:42;;;;;;;1.08;0.98;;;;;;;;;;5069004;28;20446;-70
2021/06/19 14:45:08;;;;;;;2.70;1.17;;;;;;;;;;5068118;28;20048;-70
2021/06/19 14:47:36;;;;;;;1.60;1.08;;;;;;;;;;5068947;28;20056;-70